Airfield :
LOGIN :

Register | Disclaimer

   EN    FR    IT 

 










Legend :    VFR   Marginal VFR   IFR   Intensive IFR   Very Intensive IFR
Visi :
Ceiling :
>= 8 km
>= 3000ft
5 to 8 km
1000 to 3000 ft
1500m to 5 km
500 to 1000 ft
800 to 1500m
200 to 500 ft
< 800m
< 200 ft
Symbols :   Thunderstorms  Fog  Heavy snow  Heavy precipitations  Wind > 20 kt
SIGMETs :     Misc.  Thunderstorms  Icing  Turbulence  Mountain Waves  Volcanic Ashes







- Airport Elevation : 1411 ft
- IATA code : ZHI


LSZG - Grenchen

CURRENT METAR :
  • 281250Z 28008KT 9999 BKN048 SCT060 22/12 Q1017 NOSIG

EXPIRED METARs :
  • 281220Z 28006KT 9999 BKN049 22/12 Q1017 NOSIG
  • 281150Z AUTO 27008KT 9999 OVC049 22/11 Q1017
  • 281120Z 28008KT 9999 BKN052 21/12 Q1017 NOSIG
  • 281050Z 28007KT 9999 SCT042 BKN058 21/12 Q1017 NOSIG
  • 281020Z 29006KT 9999 SCT042 BKN058 21/13 Q1017 NOSIG

TAF TAF LSZG
Valid from the 28 at 09:00 until the 28 at 18:00 UTC


280825Z 2809/2818 28008KT 9999 FEW020 SCT040 BKN070
BECMG 2815/2818 CAVOK
ATIS : +41 32 396 96 33
No reported NOTAMs for that airfield.



MET'MAP, your aeronautical weather chart ! - Copyright ORBIFLY December 2007 - Disclaimer

ORBIFLY MET'MAP TEAM :

Programming & Development : Alexandra Zaïnal
Concept & Development : Baudouin d'Aumeries
Co-Development & Prog : Marc-Olivier Méhu
Technical & hardware support : Manuel Goepfert

Contact : metmap@orbifly.com




SOURCES & CREDITS :

   NOAA